Arcadia Highway — 3FQT4 — position and weather

sailwx.info

Track history (hours):
 
Tides and Currents Weather Stations Pressure Air Temp Water Temp Dewpoint Dewpoint Depression Visibility Wind Speed Wind Dir Waves Ship Positions

Arcadia Highway

Last reported at 2014-Oct-17 09:05 UTC. Time now 2014-Oct-25 00:39 UTC.
Position S 26°59' E 153°54'.

Length 179 m; draft 7.8 m.

Type: Cargo ship. MMSI: 354342000.

Date/timePositionNaut miles runAvg speedWind from/ knotsBaromVisibWave heightAir tempDewpointWater temp
2014-Oct-17 09:05S 26°59' E 153°54'711.9
2014-Oct-17 08:29S 27°06' E 153°54'1212.3
2014-Oct-17 07:29S 27°19' E 153°53'1212.5
2014-Oct-17 06:30S 27°31' E 153°53'1212.9
2014-Oct-17 05:33S 27°43' E 153°53'1615.6
2014-Oct-17 04:33S 27°59' E 153°52'1816.8
2014-Oct-17 03:30S 28°17' E 153°52'25417.7
2014-Oct-16 13:12S 32°24' E 152°46'1217.6
2014-Oct-16 12:32S 32°35' E 152°42'1717.2
2014-Oct-16 11:33S 32°50' E 152°34'1716.9
2014-Oct-16 10:33S 33°06' E 152°26'27316.8
2014-Oct-15 18:17S 37°18' E 150°17'1317.3
2014-Oct-15 17:33S 37°30' E 150°10'1717.0
2014-Oct-15 16:32S 37°44' E 149°58'1818.0
2014-Oct-15 15:32S 37°55' E 149°41'3517.5
2014-Oct-15 13:33S 38°16' E 149°06'1917.1
2014-Oct-15 12:28S 38°28' E 148°47'8517.3
2014-Oct-15 07:33S 39°06' E 147°10'1717.0
2014-Oct-15 06:33S 39°12' E 146°49'1716.9
2014-Oct-15 05:33S 39°17' E 146°28'1717.0
2014-Oct-15 04:33S 39°16' E 146°06'1717.2
2014-Oct-15 03:33S 39°14' E 145°44'15417.1
2014-Oct-14 18:33S 38°48' E 142°29'1717.3
2014-Oct-14 17:33S 38°43' E 142°08'1817.1
2014-Oct-14 16:30S 38°37' E 141°46'  
2014-Oct-12 09:21S 38°36' E 141°43'1215.1
2014-Oct-12 08:33S 38°38' E 141°58'1615.3
2014-Oct-12 07:33S 38°41' E 142°17'1515.3
2014-Oct-12 06:33S 38°46' E 142°36'7514.4
2014-Oct-12 01:18S 38°34' E 144°11'1316.7
2014-Oct-12 00:33S 38°27' E 144°23'98 3.0
2014-Oct-10 16:29S 39°12' E 146°14'1212.8
2014-Oct-10 15:33S 39°10' E 146°29'1414.2
2014-Oct-10 14:33S 39°04' E 146°46'1615.6
2014-Oct-10 13:33S 38°60' E 147°06'1616.1
2014-Oct-10 12:33S 38°54' E 147°25'1616.2
2014-Oct-10 11:33S 38°50' E 147°45'1615.8
2014-Oct-10 10:33S 38°45' E 148°04'1515.1
2014-Oct-10 09:33S 38°38' E 148°22'1514.9
2014-Oct-10 08:32S 38°30' E 148°38'1514.9
2014-Oct-10 07:33S 38°21' E 148°53'1515.0
2014-Oct-10 06:33S 38°12' E 149°08'1515.2
2014-Oct-10 05:33S 38°03' E 149°24'1515.0
2014-Oct-10 04:33S 37°55' E 149°39'1515.1
2014-Oct-10 03:33S 37°46' E 149°55'1515.2
2014-Oct-10 02:33S 37°34' E 150°07'1615.8
2014-Oct-10 01:33S 37°19' E 150°13'270 6.9
2014-Oct-08 10:33S 33°08' E 152°14'1514.9
2014-Oct-08 09:33S 32°55' E 152°24'1615.7
2014-Oct-08 08:33S 32°43' E 152°34'23415.6
2014-Oct-07 17:32S 28°58' E 153°49'2218.6
2014-Oct-07 16:21S 28°36' E 153°50'1518.1
2014-Oct-07 15:31S 28°21' E 153°50'1717.5
2014-Oct-07 14:34S 28°04' E 153°49'1716.9
2014-Oct-07 13:34S 27°47' E 153°47'1616.0
2014-Oct-07 12:34S 27°31' E 153°44'1515.2
2014-Oct-07 11:34S 27°16' E 153°41'1515.2
2014-Oct-07 10:34S 27°02' E 153°36'1515.0
2014-Oct-07 09:34S 26°52' E 153°24'  
Track history (hours):
 
Tides and Currents Weather Stations Pressure Air Temp Water Temp Dewpoint Dewpoint Depression Visibility Wind Speed Wind Dir Waves Ship Positions

Arcadia Highway

Last reported at 2014-Oct-17 09:05 UTC. Time now 2014-Oct-25 00:39 UTC.
Position S 26°59' E 153°54'.

Length 179 m; draft 7.8 m.

Type: Cargo ship. MMSI: 354342000.

Date/timePositionNaut miles runAvg speedWind from/ knotsBaromVisibWave heightAir tempDewpointWater temp
2014-Oct-17 09:05S 26°59' E 153°54'711.9
2014-Oct-17 08:29S 27°06' E 153°54'1212.3
2014-Oct-17 07:29S 27°19' E 153°53'1212.5
2014-Oct-17 06:30S 27°31' E 153°53'1212.9
2014-Oct-17 05:33S 27°43' E 153°53'1615.6
2014-Oct-17 04:33S 27°59' E 153°52'1816.8
2014-Oct-17 03:30S 28°17' E 153°52'25417.7
2014-Oct-16 13:12S 32°24' E 152°46'1217.6
2014-Oct-16 12:32S 32°35' E 152°42'1717.2
2014-Oct-16 11:33S 32°50' E 152°34'1716.9
2014-Oct-16 10:33S 33°06' E 152°26'27316.8
2014-Oct-15 18:17S 37°18' E 150°17'1317.3
2014-Oct-15 17:33S 37°30' E 150°10'1717.0
2014-Oct-15 16:32S 37°44' E 149°58'1818.0
2014-Oct-15 15:32S 37°55' E 149°41'3517.5
2014-Oct-15 13:33S 38°16' E 149°06'1917.1
2014-Oct-15 12:28S 38°28' E 148°47'8517.3
2014-Oct-15 07:33S 39°06' E 147°10'1717.0
2014-Oct-15 06:33S 39°12' E 146°49'1716.9
2014-Oct-15 05:33S 39°17' E 146°28'1717.0
2014-Oct-15 04:33S 39°16' E 146°06'1717.2
2014-Oct-15 03:33S 39°14' E 145°44'15417.1
2014-Oct-14 18:33S 38°48' E 142°29'1717.3
2014-Oct-14 17:33S 38°43' E 142°08'1817.1
2014-Oct-14 16:30S 38°37' E 141°46'  
2014-Oct-12 09:21S 38°36' E 141°43'1215.1
2014-Oct-12 08:33S 38°38' E 141°58'1615.3
2014-Oct-12 07:33S 38°41' E 142°17'1515.3
2014-Oct-12 06:33S 38°46' E 142°36'7514.4
2014-Oct-12 01:18S 38°34' E 144°11'1316.7
2014-Oct-12 00:33S 38°27' E 144°23'98 3.0
2014-Oct-10 16:29S 39°12' E 146°14'1212.8
2014-Oct-10 15:33S 39°10' E 146°29'1414.2
2014-Oct-10 14:33S 39°04' E 146°46'1615.6
2014-Oct-10 13:33S 38°60' E 147°06'1616.1
2014-Oct-10 12:33S 38°54' E 147°25'1616.2
2014-Oct-10 11:33S 38°50' E 147°45'1615.8
2014-Oct-10 10:33S 38°45' E 148°04'1515.1
2014-Oct-10 09:33S 38°38' E 148°22'1514.9
2014-Oct-10 08:32S 38°30' E 148°38'1514.9
2014-Oct-10 07:33S 38°21' E 148°53'1515.0
2014-Oct-10 06:33S 38°12' E 149°08'1515.2
2014-Oct-10 05:33S 38°03' E 149°24'1515.0
2014-Oct-10 04:33S 37°55' E 149°39'1515.1
2014-Oct-10 03:33S 37°46' E 149°55'1515.2
2014-Oct-10 02:33S 37°34' E 150°07'1615.8
2014-Oct-10 01:33S 37°19' E 150°13'270 6.9
2014-Oct-08 10:33S 33°08' E 152°14'1514.9
2014-Oct-08 09:33S 32°55' E 152°24'1615.7
2014-Oct-08 08:33S 32°43' E 152°34'23415.6
2014-Oct-07 17:32S 28°58' E 153°49'2218.6
2014-Oct-07 16:21S 28°36' E 153°50'1518.1
2014-Oct-07 15:31S 28°21' E 153°50'1717.5
2014-Oct-07 14:34S 28°04' E 153°49'1716.9
2014-Oct-07 13:34S 27°47' E 153°47'1616.0
2014-Oct-07 12:34S 27°31' E 153°44'1515.2
2014-Oct-07 11:34S 27°16' E 153°41'1515.2
2014-Oct-07 10:34S 27°02' E 153°36'1515.0
2014-Oct-07 09:34S 26°52' E 153°24'  

Dump ship's entire track history